首页
METAR-TAF:

METAR-TAF

机场 :

奥斯陆加勒穆恩机场

奥斯陆, 挪威

纬度: 60-12N, 经度: 011-05E, 海拔: 208米

当前天气观测

该预报发布于13分钟前的19:50 UTC
风速11节,风向
温度 13°C
湿度 82%
气压 1016 hPa
能见度10公里或以上
1500米以下无云,无积雨云

METAR: ENGM 201950Z 18011KT CAVOK 13/10 Q1016 NOSIG

时间: 22:03 (20:03 UTC)

预报

预报有效从20日的 18点(UTC)到 21日的 18点(UTC)
风速7节,风向
能见度10公里或以上
1500米以下无云,无积雨云
短暂存在
从 21日的 10点(UTC)到 21日的 15点(UTC)
风速15节,风向西转西南

TAF: ENGM 2018/2118 18007KT CAVOK TEMPO 2110/2115 24015KT

超过4000个机场的气象观测和天气预报(METAR&TAF报告)。

可查询的气象台以黄色和红色小点在地图上表示。

将鼠标移到小点上方,可查看气象台名称。

然后点击查看天气观测和预报。

如需切换地图:点击带黑十字的绿色按钮放大地图;点击带横线的绿色按钮缩小地图;或者点击绿色箭头查看邻近地区的地图。


METAR-TAF: